createdAt,value
2022-11-26T00:01:23.335Z,99863.06
2022-11-26T00:03:50.562Z,99866.41
2022-11-26T00:06:40.921Z,99866.16
2022-11-26T00:09:14.931Z,99865.44
2022-11-26T00:11:41.963Z,99864.03
2022-11-26T00:14:13.749Z,99868.72
2022-11-26T00:16:40.553Z,99871.75
2022-11-26T00:19:06.995Z,99878.00
2022-11-26T00:21:36.791Z,99874.41
2022-11-26T00:24:05.251Z,99873.56
2022-11-26T00:26:32.174Z,99875.38
2022-11-26T00:28:59.842Z,99883.41
2022-11-26T00:31:27.873Z,99878.13
2022-11-26T00:33:54.430Z,99891.81
2022-11-26T00:36:27.348Z,99886.28
2022-11-26T00:39:17.998Z,99891.31
2022-11-26T00:41:49.666Z,99886.00
2022-11-26T00:44:25.071Z,99890.78
2022-11-26T00:46:52.117Z,99893.16
2022-11-26T00:49:18.821Z,99900.13
2022-11-26T00:51:46.537Z,99901.78
2022-11-26T00:54:17.096Z,99905.16
2022-11-26T00:56:43.592Z,99906.13
2022-11-26T00:59:13.634Z,99906.13
2022-11-26T01:01:40.246Z,99910.91
2022-11-26T01:04:06.839Z,99916.19
2022-11-26T01:06:36.704Z,99918.84
2022-11-26T01:09:05.236Z,99922.44
2022-11-26T01:11:31.689Z,99924.00
2022-11-26T01:13:58.255Z,99929.41
2022-11-26T01:16:34.494Z,99931.91
2022-11-26T01:19:01.885Z,99929.16
2022-11-26T01:21:30.631Z,99941.16
2022-11-26T01:23:58.560Z,99942.72
2022-11-26T01:26:33.648Z,99951.34
2022-11-26T01:29:00.172Z,99946.75
2022-11-26T01:31:29.402Z,99946.66
2022-11-26T01:33:56.255Z,99954.31
2022-11-26T01:36:25.649Z,99955.00
2022-11-26T01:38:53.905Z,99959.38
2022-11-26T01:41:45.349Z,99961.59
2022-11-26T01:44:32.468Z,99971.47
2022-11-26T01:47:00.224Z,99978.19
2022-11-26T01:49:28.182Z,99984.19
2022-11-26T01:52:18.495Z,99983.22
2022-11-26T01:54:45.592Z,99981.69
2022-11-26T01:57:22.533Z,99989.63
2022-11-26T01:59:53.543Z,99991.03
2022-11-26T02:02:23.039Z,99997.03
2022-11-26T02:05:00.892Z,99987.69
2022-11-26T02:07:27.509Z,99999.22
2022-11-26T02:09:53.904Z,99995.47
2022-11-26T02:12:20.443Z,99995.63
2022-11-26T02:14:47.020Z,99993.41
2022-11-26T02:17:25.262Z,99993.41
2022-11-26T02:20:13.272Z,100000.41
2022-11-26T02:22:57.744Z,99997.75
2022-11-26T02:25:51.625Z,100001.94
2022-11-26T02:28:40.937Z,100005.41
2022-11-26T02:31:26.234Z,100004.72
2022-11-26T02:34:11.491Z,100015.31
2022-11-26T02:36:52.424Z,100018.53
2022-11-26T02:39:21.674Z,100018.53
2022-11-26T02:41:51.260Z,100025.50
2022-11-26T02:44:24.231Z,100041.94
2022-11-26T02:46:57.646Z,100034.72
2022-11-26T02:49:24.819Z,100036.66
2022-11-26T02:51:58.919Z,100041.09
2022-11-26T02:54:27.475Z,100046.53
2022-11-26T02:56:55.003Z,100046.41
2022-11-26T02:59:22.055Z,100048.22
2022-11-26T03:01:56.002Z,100048.34
2022-11-26T03:04:28.094Z,100045.00
2022-11-26T03:06:56.847Z,100050.53
2022-11-26T03:09:23.901Z,100048.16
2022-11-26T03:11:50.339Z,100050.78
2022-11-26T03:14:16.723Z,100057.91
2022-11-26T03:16:43.216Z,100051.78
2022-11-26T03:19:09.740Z,100055.25
2022-11-26T03:21:36.236Z,100054.41
2022-11-26T03:24:02.652Z,100058.00
2022-11-26T03:26:28.978Z,100060.66
2022-11-26T03:28:55.297Z,100063.19
2022-11-26T03:31:21.886Z,100069.31
2022-11-26T03:33:48.311Z,100066.28
2022-11-26T03:36:14.680Z,100067.97
2022-11-26T03:38:41.087Z,100073.13
2022-11-26T03:41:07.621Z,100072.28
2022-11-26T03:43:33.964Z,100073.25
2022-11-26T03:46:05.253Z,100076.50
2022-11-26T03:48:31.652Z,100073.00
2022-11-26T03:50:58.304Z,100078.75
2022-11-26T03:53:24.749Z,100076.09
2022-11-26T03:55:51.544Z,100083.09
2022-11-26T03:58:17.932Z,100077.78
2022-11-26T04:00:44.248Z,100083.34
2022-11-26T04:03:10.902Z,100084.19
2022-11-26T04:05:37.668Z,100087.06
2022-11-26T04:08:04.273Z,100087.06
2022-11-26T04:10:31.237Z,100080.94
2022-11-26T04:12:57.862Z,100081.91
2022-11-26T04:15:24.431Z,100083.13
2022-11-26T04:17:50.840Z,100079.31
2022-11-26T04:20:17.362Z,100081.50
2022-11-26T04:22:43.753Z,100076.72
2022-11-26T04:25:10.272Z,100075.63
2022-11-26T04:27:36.598Z,100069.88
2022-11-26T04:30:05.239Z,100075.66
2022-11-26T04:32:31.691Z,100084.97
2022-11-26T04:34:58.395Z,100086.03
2022-11-26T04:37:24.815Z,100083.56
2022-11-26T04:39:52.301Z,100086.09
2022-11-26T04:42:18.617Z,100085.75
2022-11-26T04:44:45.008Z,100084.66
2022-11-26T04:47:11.339Z,100088.88
2022-11-26T04:49:37.786Z,100089.69
2022-11-26T04:52:04.990Z,100086.81
2022-11-26T04:54:31.630Z,100086.56
2022-11-26T04:56:58.076Z,100083.66
2022-11-26T04:59:24.455Z,100086.09
2022-11-26T05:01:50.897Z,100088.53
2022-11-26T05:04:17.307Z,100093.06
2022-11-26T05:06:43.736Z,100092.38
2022-11-26T05:09:10.259Z,100095.13
2022-11-26T05:11:36.624Z,100096.34
2022-11-26T05:14:03.368Z,100101.03
2022-11-26T05:16:30.093Z,100099.34
2022-11-26T05:18:56.586Z,100100.31
2022-11-26T05:21:24.280Z,100105.59
2022-11-26T05:23:50.677Z,100101.16
2022-11-26T05:26:17.148Z,100111.47
2022-11-26T05:28:43.567Z,100113.78
2022-11-26T05:31:10.208Z,100110.41
2022-11-26T05:33:36.649Z,100110.75
2022-11-26T05:36:05.139Z,100109.66
2022-11-26T05:38:31.694Z,100115.69
2022-11-26T05:40:58.092Z,100113.88
2022-11-26T05:43:24.495Z,100120.59
2022-11-26T05:45:50.895Z,100113.97
2022-11-26T05:48:17.387Z,100121.19
2022-11-26T05:50:43.842Z,100125.53
2022-11-26T05:53:10.562Z,100122.75
2022-11-26T05:55:39.063Z,100132.09
2022-11-26T05:58:05.477Z,100137.63
2022-11-26T06:00:31.800Z,100138.09
2022-11-26T06:02:58.317Z,100134.47
2022-11-26T06:05:24.883Z,100136.41
2022-11-26T06:07:51.769Z,100133.75
2022-11-26T06:10:18.530Z,100143.84
2022-11-26T06:12:44.866Z,100142.03
2022-11-26T06:15:11.323Z,100146.97
2022-11-26T06:17:37.700Z,100147.81
2022-11-26T06:20:05.396Z,100145.16
2022-11-26T06:22:36.693Z,100144.31
2022-11-26T06:25:05.230Z,100146.72
2022-11-26T06:27:33.832Z,100153.22
2022-11-26T06:30:00.223Z,100157.78
2022-11-26T06:32:28.646Z,100159.47
2022-11-26T06:34:55.014Z,100166.91
2022-11-26T06:37:21.934Z,100157.88
2022-11-26T06:39:48.276Z,100155.25
2022-11-26T06:42:14.730Z,100152.75
2022-11-26T06:44:41.315Z,100158.88
2022-11-26T06:47:11.183Z,100161.63
2022-11-26T06:49:37.734Z,100162.44
2022-11-26T06:52:04.828Z,100170.38
2022-11-26T06:54:31.669Z,100179.88
2022-11-26T06:56:58.025Z,100185.19
2022-11-26T06:59:24.520Z,100193.94
2022-11-26T07:01:51.017Z,100183.25
2022-11-26T07:04:17.459Z,100185.78
2022-11-26T07:06:45.425Z,100193.34
2022-11-26T07:09:12.646Z,100196.47
2022-11-26T07:11:40.128Z,100206.69
2022-11-26T07:14:09.694Z,100205.44
2022-11-26T07:16:36.644Z,100214.13
2022-11-26T07:19:03.448Z,100204.03
2022-11-26T07:21:30.741Z,100218.31
2022-11-26T07:23:58.216Z,100220.59
2022-11-26T07:26:24.833Z,100228.78
2022-11-26T07:28:51.675Z,100230.47
2022-11-26T07:31:20.347Z,100235.84
2022-11-26T07:33:47.745Z,100236.56
2022-11-26T07:36:19.743Z,100240.44
2022-11-26T07:38:46.967Z,100243.56
2022-11-26T07:41:19.256Z,100247.31
2022-11-26T07:43:46.691Z,100256.91
2022-11-26T07:46:17.912Z,100262.53
2022-11-26T07:48:45.518Z,100259.19
2022-11-26T07:51:24.051Z,100262.66
2022-11-26T07:53:51.384Z,100271.44
2022-11-26T07:56:18.677Z,100273.25
2022-11-26T07:58:46.451Z,100282.53
2022-11-26T08:01:24.387Z,100283.56
2022-11-26T08:03:51.581Z,100285.13
2022-11-26T08:06:20.068Z,100286.56
2022-11-26T08:08:46.879Z,100288.56
2022-11-26T08:11:28.455Z,100293.03
2022-11-26T08:13:59.193Z,100288.50
2022-11-26T08:16:28.810Z,100276.91
2022-11-26T08:18:57.894Z,100286.81
2022-11-26T08:21:25.240Z,100289.31
2022-11-26T08:23:52.974Z,100290.16
2022-11-26T08:26:25.088Z,100290.41
2022-11-26T08:28:54.323Z,100293.91
2022-11-26T08:31:21.024Z,100291.13
2022-11-26T08:33:47.563Z,100307.94
2022-11-26T08:36:16.315Z,100313.47
2022-11-26T08:38:42.844Z,100309.59
2022-11-26T08:41:12.070Z,100309.22
2022-11-26T08:44:05.132Z,100314.41
2022-11-26T08:46:27.249Z,100325.22
2022-11-26T08:48:57.884Z,100324.25
2022-11-26T08:51:25.173Z,100329.28
2022-11-26T08:53:51.805Z,100336.88
2022-11-26T08:56:18.334Z,100337.19
2022-11-26T08:58:45.385Z,100342.69
2022-11-26T09:01:21.075Z,100346.78
2022-11-26T09:03:49.112Z,100346.28
2022-11-26T09:06:15.850Z,100346.34
2022-11-26T09:08:43.437Z,100356.75
2022-11-26T09:11:09.831Z,100364.75
2022-11-26T09:13:36.458Z,100372.34
2022-11-26T09:16:02.946Z,100384.22
2022-11-26T09:18:30.537Z,100392.38
2022-11-26T09:21:02.277Z,100403.56
2022-11-26T09:23:30.249Z,100415.69
2022-11-26T09:25:56.925Z,100427.63
2022-11-26T09:28:24.822Z,100436.72
2022-11-26T09:30:57.508Z,100451.72
2022-11-26T09:33:24.187Z,100458.72
2022-11-26T09:35:50.598Z,100464.53
2022-11-26T09:38:17.006Z,100472.25
2022-11-26T09:40:52.177Z,100472.31
2022-11-26T09:43:29.823Z,100470.13
2022-11-26T09:45:59.221Z,100457.44
2022-11-26T09:48:28.558Z,100461.84
2022-11-26T09:51:05.097Z,100475.19
2022-11-26T09:53:37.196Z,100546.94
2022-11-26T09:56:05.779Z,100592.94
2022-11-26T09:58:59.112Z,100646.16
2022-11-26T10:01:25.522Z,100670.75
2022-11-26T10:03:52.234Z,100657.59
2022-11-26T10:06:37.023Z,100695.72
2022-11-26T10:09:31.328Z,100720.59
2022-11-26T10:12:25.033Z,100700.06
2022-11-26T10:15:16.522Z,100621.78
2022-11-26T10:17:56.551Z,100579.44
2022-11-26T10:21:00.208Z,100542.19
2022-11-26T10:24:03.212Z,100480.94
2022-11-26T10:26:34.975Z,100483.31
2022-11-26T10:29:12.644Z,100473.81
2022-11-26T10:31:42.434Z,100483.44
2022-11-26T10:34:17.093Z,100453.16
2022-11-26T10:36:46.442Z,100418.16
2022-11-26T10:39:15.459Z,100383.34
2022-11-26T10:41:42.059Z,100386.13
2022-11-26T10:44:28.499Z,100400.63
2022-11-26T10:46:55.645Z,100409.38
2022-11-26T10:49:23.509Z,100371.78
2022-11-26T10:51:51.935Z,100366.03
2022-11-26T10:54:25.397Z,100337.44
2022-11-26T10:56:53.472Z,100325.41
2022-11-26T10:59:22.858Z,100328.34
2022-11-26T11:01:52.996Z,100317.66
2022-11-26T11:04:44.803Z,100339.59
2022-11-26T11:07:34.155Z,100335.97
2022-11-26T11:10:12.429Z,100387.44
2022-11-26T11:12:42.563Z,100367.06
2022-11-26T11:15:17.819Z,100382.22
2022-11-26T11:17:46.022Z,100393.84
2022-11-26T11:20:15.395Z,100411.09
2022-11-26T11:22:43.558Z,100442.72
2022-11-26T11:25:26.234Z,100460.78
2022-11-26T11:27:54.059Z,100476.91
2022-11-26T11:30:33.515Z,100482.50
2022-11-26T11:33:32.502Z,100502.81
2022-11-26T11:36:14.157Z,100485.44
2022-11-26T11:38:56.315Z,100470.13
2022-11-26T11:41:28.367Z,100445.28
2022-11-26T11:44:20.986Z,100384.84
2022-11-26T11:47:21.967Z,100326.53
2022-11-26T11:50:07.226Z,100288.03
2022-11-26T11:52:58.041Z,100291.50
2022-11-26T11:55:24.424Z,100299.41
2022-11-26T11:58:12.799Z,100285.97
2022-11-26T12:01:04.450Z,100262.72
2022-11-26T12:03:48.689Z,100251.06
2022-11-26T12:06:34.259Z,100273.03
2022-11-26T12:09:07.021Z,100279.28
2022-11-26T12:11:48.512Z,100292.53
2022-11-26T12:14:35.628Z,100316.34
2022-11-26T12:17:29.004Z,100340.84
2022-11-26T12:20:05.065Z,100350.78
2022-11-26T12:22:57.821Z,100370.28
2022-11-26T12:25:37.000Z,100363.69
2022-11-26T12:28:15.052Z,100345.59
2022-11-26T12:30:54.661Z,100321.69
2022-11-26T12:33:34.297Z,100272.25
2022-11-26T12:36:26.890Z,100235.81
2022-11-26T12:38:56.701Z,100202.28
2022-11-26T12:41:41.210Z,100184.72
2022-11-26T12:44:20.612Z,100172.16
2022-11-26T12:46:54.561Z,100168.00
2022-11-26T12:49:30.430Z,100174.00
2022-11-26T12:52:20.037Z,100161.84
2022-11-26T12:55:35.531Z,100154.97
2022-11-26T12:58:13.912Z,100142.44
2022-11-26T13:00:40.518Z,100144.44
2022-11-26T13:03:13.571Z,100137.09
2022-11-26T13:06:17.205Z,100136.75
2022-11-26T13:09:16.241Z,100129.38
2022-11-26T13:11:55.829Z,100132.88
2022-11-26T13:14:49.806Z,100129.56
2022-11-26T13:17:18.716Z,100134.75
2022-11-26T13:20:04.207Z,100128.25
2022-11-26T13:23:02.781Z,100113.34
2022-11-26T13:25:42.137Z,100113.22
2022-11-26T13:28:34.195Z,100107.03
2022-11-26T13:31:03.408Z,100111.03
2022-11-26T13:33:43.567Z,100105.53
2022-11-26T13:36:12.759Z,100100.50
2022-11-26T13:39:04.333Z,100110.19
2022-11-26T13:41:52.542Z,100110.38
2022-11-26T13:44:37.755Z,100108.84
2022-11-26T13:47:16.544Z,100114.34
2022-11-26T13:49:58.791Z,100113.16
2022-11-26T13:52:50.288Z,100104.09
2022-11-26T13:55:29.431Z,100102.63
2022-11-26T13:57:59.444Z,100100.56
2022-11-26T14:00:29.110Z,100094.38
2022-11-26T14:02:56.747Z,100099.50
2022-11-26T14:05:23.676Z,100100.50
2022-11-26T14:07:50.118Z,100120.88
2022-11-26T14:10:34.686Z,100130.72
2022-11-26T14:13:05.404Z,100132.09
2022-11-26T14:15:40.812Z,100125.38
2022-11-26T14:18:17.752Z,100135.72
2022-11-26T14:20:59.131Z,100138.28
2022-11-26T14:23:40.708Z,100157.03
2022-11-26T14:26:10.581Z,100161.53
2022-11-26T14:28:36.979Z,100172.38
2022-11-26T14:31:29.302Z,100178.69
2022-11-26T14:33:58.619Z,100196.69
2022-11-26T14:36:27.840Z,100190.19
2022-11-26T14:39:24.053Z,100201.50
2022-11-26T14:41:52.162Z,100204.75
2022-11-26T14:44:19.307Z,100199.75
2022-11-26T14:46:49.063Z,100214.66
2022-11-26T14:49:18.437Z,100230.06
2022-11-26T14:51:49.515Z,100233.59
2022-11-26T14:54:31.609Z,100256.94
2022-11-26T14:57:04.849Z,100277.69
2022-11-26T14:59:31.270Z,100299.31
2022-11-26T15:01:57.771Z,100331.53
2022-11-26T15:04:32.293Z,100361.25
2022-11-26T15:06:59.015Z,100376.63
2022-11-26T15:09:27.908Z,100379.16
2022-11-26T15:11:54.338Z,100411.88
2022-11-26T15:14:45.533Z,100426.66
2022-11-26T15:17:15.674Z,100443.44
2022-11-26T15:19:43.972Z,100468.19
2022-11-26T15:22:35.101Z,100488.28
2022-11-26T15:25:01.710Z,100515.91
2022-11-26T15:27:30.831Z,100536.25
2022-11-26T15:29:58.012Z,100555.63
2022-11-26T15:32:31.676Z,100571.97
2022-11-26T15:35:00.734Z,100592.75
2022-11-26T15:37:27.680Z,100609.91
2022-11-26T15:40:30.305Z,100623.13
2022-11-26T15:42:59.752Z,100631.94
2022-11-26T15:45:36.793Z,100650.44
2022-11-26T15:48:04.169Z,100653.94
2022-11-26T15:50:33.983Z,100665.16
2022-11-26T15:53:07.349Z,100683.97
2022-11-26T15:55:36.518Z,100706.88
2022-11-26T15:58:08.498Z,100726.53
2022-11-26T16:00:38.495Z,100750.16
2022-11-26T16:03:43.614Z,100763.88
2022-11-26T16:06:35.394Z,100790.88
2022-11-26T16:09:04.415Z,100807.25
2022-11-26T16:11:33.196Z,100810.03
2022-11-26T16:14:25.943Z,100821.72
2022-11-26T16:16:52.966Z,100821.56
2022-11-26T16:19:21.062Z,100824.69
2022-11-26T16:21:50.416Z,100841.16
2022-11-26T16:24:29.876Z,100846.03
2022-11-26T16:27:00.755Z,100841.19
2022-11-26T16:29:30.466Z,100624.44
2022-11-26T16:31:57.349Z,100540.38
2022-11-26T16:34:26.580Z,100534.44
2022-11-26T16:37:01.248Z,100538.28
2022-11-26T16:39:30.474Z,100538.16
2022-11-26T16:41:57.402Z,100543.69
2022-11-26T16:44:24.075Z,100540.31
2022-11-26T16:46:51.751Z,100547.88
2022-11-26T16:49:18.102Z,100542.22
2022-11-26T16:51:44.438Z,100541.72
2022-11-26T16:54:11.083Z,100534.16
2022-11-26T16:56:38.436Z,100539.53
2022-11-26T16:59:06.913Z,100528.47
2022-11-26T17:01:33.647Z,100529.78
2022-11-26T17:04:00.095Z,100519.78
2022-11-26T17:06:32.793Z,100517.59
2022-11-26T17:09:00.320Z,100520.81
2022-11-26T17:11:27.022Z,100512.63
2022-11-26T17:13:53.959Z,100510.66
2022-11-26T17:16:22.584Z,100507.38
2022-11-26T17:18:50.609Z,100506.16
2022-11-26T17:21:17.150Z,100505.41
2022-11-26T17:23:43.537Z,100499.66
2022-11-26T17:26:22.175Z,100501.53
2022-11-26T17:28:49.885Z,100459.47
2022-11-26T17:31:19.633Z,100448.19
2022-11-26T17:33:46.284Z,100442.38
2022-11-26T17:36:16.461Z,100444.41
2022-11-26T17:38:43.281Z,100437.78
2022-11-26T17:41:09.706Z,100435.69
2022-11-26T17:43:36.215Z,100435.06
2022-11-26T17:46:03.301Z,100439.03
2022-11-26T17:48:31.428Z,100443.44
2022-11-26T17:50:57.821Z,100443.34
2022-11-26T17:53:24.333Z,100378.59
2022-11-26T17:55:50.802Z,100352.16
2022-11-26T17:58:17.241Z,100357.91
2022-11-26T18:00:44.985Z,100338.56
2022-11-26T18:03:13.072Z,100341.78
2022-11-26T18:05:42.291Z,100333.38
2022-11-26T18:08:09.308Z,100342.56
2022-11-26T18:10:39.413Z,100338.81
2022-11-26T18:13:05.834Z,100326.06
2022-11-26T18:15:32.585Z,100322.56
2022-11-26T18:17:59.153Z,100325.56
2022-11-26T18:20:27.902Z,100313.44
2022-11-26T18:22:57.719Z,100315.44
2022-11-26T18:25:24.831Z,100308.91
2022-11-26T18:27:52.329Z,100310.09
2022-11-26T18:30:19.752Z,100299.75
2022-11-26T18:32:46.181Z,100312.34
2022-11-26T18:35:13.121Z,100301.66
2022-11-26T18:37:40.037Z,100305.16
2022-11-26T18:40:08.888Z,100305.78
2022-11-26T18:42:37.794Z,100299.03
2022-11-26T18:45:09.646Z,100298.31
2022-11-26T18:47:36.169Z,100300.22
2022-11-26T18:50:02.605Z,100310.16
2022-11-26T18:52:29.202Z,100305.72
2022-11-26T18:54:55.661Z,100310.03
2022-11-26T18:57:22.583Z,100314.81
2022-11-26T18:59:48.903Z,100303.84
2022-11-26T19:02:15.308Z,100308.69
2022-11-26T19:04:41.667Z,100309.16
2022-11-26T19:07:08.967Z,100304.41
2022-11-26T19:09:35.276Z,100300.31
2022-11-26T19:12:01.582Z,100294.44
2022-11-26T19:14:28.199Z,100296.31
2022-11-26T19:16:55.381Z,100293.47
2022-11-26T19:19:22.557Z,100290.31
2022-11-26T19:21:49.068Z,100295.28
2022-11-26T19:24:16.143Z,100282.63
2022-11-26T19:26:42.547Z,100285.81
2022-11-26T19:29:11.065Z,100278.63
2022-11-26T19:31:38.110Z,100279.69
2022-11-26T19:34:05.229Z,100275.69
2022-11-26T19:36:32.962Z,100280.97
2022-11-26T19:39:01.475Z,100284.88
2022-11-26T19:41:28.896Z,100273.50
2022-11-26T19:43:55.444Z,100282.09
2022-11-26T19:46:24.396Z,100280.56
2022-11-26T19:48:51.895Z,100268.44
2022-11-26T19:51:22.056Z,100273.28
2022-11-26T19:53:52.582Z,100267.47
2022-11-26T19:56:22.128Z,100263.59
2022-11-26T19:58:49.540Z,100271.69
2022-11-26T20:01:17.513Z,100269.69
2022-11-26T20:03:44.440Z,100268.09
2022-11-26T20:06:22.679Z,100258.00
2022-11-26T20:08:49.649Z,100257.78
2022-11-26T20:11:18.020Z,100260.41
2022-11-26T20:13:46.017Z,100253.34
2022-11-26T20:16:16.152Z,100249.25
2022-11-26T20:18:42.852Z,100248.50
2022-11-26T20:21:14.887Z,100254.72
2022-11-26T20:23:41.315Z,100255.47
2022-11-26T20:26:19.760Z,100247.03
2022-11-26T20:28:46.228Z,100245.22
2022-11-26T20:31:16.266Z,100245.66
2022-11-26T20:33:45.093Z,100241.63
2022-11-26T20:36:14.511Z,100244.47
2022-11-26T20:38:40.880Z,100242.44
2022-11-26T20:41:12.947Z,100249.72
2022-11-26T20:43:39.479Z,100244.03
2022-11-26T20:46:07.560Z,100245.47
2022-11-26T20:48:35.572Z,100250.72
2022-11-26T20:51:07.450Z,100244.19
2022-11-26T20:53:35.623Z,100239.13
2022-11-26T20:56:02.911Z,100245.22
2022-11-26T20:58:29.331Z,100236.69
2022-11-26T21:00:57.720Z,100237.03
2022-11-26T21:03:26.081Z,100237.94
2022-11-26T21:05:52.935Z,100219.72
2022-11-26T21:08:22.654Z,100216.25
2022-11-26T21:10:50.184Z,100220.38
2022-11-26T21:13:18.930Z,100225.31
2022-11-26T21:15:46.564Z,100217.31
2022-11-26T21:18:12.998Z,100215.91
2022-11-26T21:20:40.759Z,100218.00
2022-11-26T21:23:08.410Z,100226.81
2022-11-26T21:25:42.345Z,100230.72
2022-11-26T21:28:09.619Z,100224.06
2022-11-26T21:30:36.757Z,100217.78
2022-11-26T21:33:09.359Z,100211.00
2022-11-26T21:35:36.860Z,100215.88
2022-11-26T21:38:04.314Z,100219.44
2022-11-26T21:40:31.014Z,100226.59
2022-11-26T21:42:57.660Z,100217.97
2022-11-26T21:45:24.663Z,100224.72
2022-11-26T21:47:52.409Z,100231.13
2022-11-26T21:50:20.033Z,100230.47
2022-11-26T21:52:46.453Z,100234.97
2022-11-26T21:55:12.882Z,100228.03
2022-11-26T21:57:39.256Z,100244.75
2022-11-26T22:00:06.634Z,100234.72
2022-11-26T22:02:33.082Z,100244.59
2022-11-26T22:04:59.594Z,100245.91
2022-11-26T22:07:26.043Z,100240.66
2022-11-26T22:09:52.787Z,100246.00
2022-11-26T22:12:19.161Z,100242.44
2022-11-26T22:14:45.521Z,100251.28
2022-11-26T22:17:11.848Z,100262.50
2022-11-26T22:19:38.585Z,100252.00
2022-11-26T22:22:05.090Z,100254.63
2022-11-26T22:24:31.564Z,100261.88
2022-11-26T22:26:58.439Z,100257.47
2022-11-26T22:29:27.110Z,100256.63
2022-11-26T22:31:54.492Z,100261.34
2022-11-26T22:34:21.409Z,100248.72
2022-11-26T22:36:47.911Z,100247.03
2022-11-26T22:39:16.403Z,100242.75
2022-11-26T22:41:44.882Z,100245.91
2022-11-26T22:44:13.078Z,100247.50
2022-11-26T22:46:39.719Z,100245.63
2022-11-26T22:49:06.794Z,100253.78
2022-11-26T22:51:35.901Z,100246.47
2022-11-26T22:54:06.198Z,100249.09
2022-11-26T22:56:33.072Z,100237.44
2022-11-26T22:59:02.005Z,100244.88
2022-11-26T23:01:30.853Z,100233.53
2022-11-26T23:03:59.206Z,100233.31
2022-11-26T23:06:29.066Z,100240.38
2022-11-26T23:08:57.546Z,100243.84
2022-11-26T23:11:27.965Z,100244.69
2022-11-26T23:13:55.078Z,100239.53
2022-11-26T23:16:24.260Z,100242.44
2022-11-26T23:18:52.871Z,100245.91
2022-11-26T23:21:28.790Z,100244.97
2022-11-26T23:23:55.634Z,100234.09
2022-11-26T23:26:27.087Z,100229.59
2022-11-26T23:28:57.014Z,100224.34
2022-11-26T23:31:29.758Z,100217.69
2022-11-26T23:33:59.294Z,100220.31
2022-11-26T23:36:27.566Z,100207.94
2022-11-26T23:38:56.130Z,100212.31
2022-11-26T23:41:24.249Z,100209.09
2022-11-26T23:43:50.999Z,100193.31
2022-11-26T23:46:20.847Z,100192.00
2022-11-26T23:48:48.419Z,100189.75
2022-11-26T23:51:20.304Z,100187.13
2022-11-26T23:53:47.954Z,100184.03
2022-11-26T23:56:20.738Z,100183.66
2022-11-26T23:58:51.379Z,100182.50
